createdAt,value
2018-12-19T00:00:54.680Z,15.50
2018-12-19T00:03:22.270Z,12.70
2018-12-19T00:05:49.785Z,13.30
2018-12-19T00:08:17.341Z,13.63
2018-12-19T00:10:44.855Z,11.77
2018-12-19T00:13:14.629Z,12.43
2018-12-19T00:15:42.214Z,11.80
2018-12-19T00:18:09.727Z,11.97
2018-12-19T00:20:37.241Z,12.00
2018-12-19T00:23:04.795Z,16.00
2018-12-19T00:25:32.353Z,17.83
2018-12-19T00:27:59.938Z,15.30
2018-12-19T00:30:27.454Z,13.10
2018-12-19T00:32:54.992Z,12.17
2018-12-19T00:35:22.518Z,11.63
2018-12-19T00:37:50.069Z,11.30
2018-12-19T00:40:17.601Z,12.00
2018-12-19T00:42:45.263Z,13.30
2018-12-19T00:45:12.779Z,12.90
2018-12-19T00:47:40.290Z,14.03
2018-12-19T00:50:07.833Z,13.73
2018-12-19T00:52:35.391Z,13.20
2018-12-19T00:55:03.372Z,13.47
2018-12-19T00:57:30.918Z,13.83
2018-12-19T00:59:58.464Z,13.00
2018-12-19T01:02:25.966Z,12.63
2018-12-19T01:04:58.613Z,13.20
2018-12-19T01:07:26.149Z,14.00
2018-12-19T01:09:53.696Z,12.33
2018-12-19T01:12:21.206Z,12.70
2018-12-19T01:14:53.064Z,13.83
2018-12-19T01:17:20.702Z,13.53
2018-12-19T01:19:48.255Z,13.23
2018-12-19T01:22:15.763Z,13.07
2018-12-19T01:24:43.543Z,12.93
2018-12-19T01:27:11.090Z,12.60
2018-12-19T01:29:38.614Z,13.07
2018-12-19T01:32:06.172Z,12.97
2018-12-19T01:34:33.684Z,13.97
2018-12-19T01:37:01.234Z,13.27
2018-12-19T01:39:28.742Z,15.27
2018-12-19T01:41:56.302Z,14.03
2018-12-19T01:44:23.835Z,15.30
2018-12-19T01:46:51.373Z,15.30
2018-12-19T01:52:01.766Z,12.77
2018-12-19T01:54:29.291Z,13.70
2018-12-19T01:56:57.101Z,11.93
2018-12-19T01:59:24.650Z,13.00
2018-12-19T02:01:52.585Z,13.53
2018-12-19T02:04:20.198Z,13.60
2018-12-19T02:06:47.735Z,12.60
2018-12-19T02:09:15.246Z,13.60
2018-12-19T02:11:42.789Z,13.70
2018-12-19T02:14:10.308Z,13.70
2018-12-19T02:16:38.700Z,12.80
2018-12-19T02:19:06.290Z,12.23
2018-12-19T02:21:33.853Z,13.30
2018-12-19T02:24:03.915Z,14.07
2018-12-19T02:26:31.678Z,12.67
2018-12-19T02:29:00.469Z,13.40
2018-12-19T02:31:30.469Z,13.60
2018-12-19T02:33:58.321Z,12.77
2018-12-19T02:36:25.893Z,13.73
2018-12-19T02:38:54.763Z,13.90
2018-12-19T02:41:22.262Z,12.03
2018-12-19T02:43:50.081Z,13.80
2018-12-19T02:46:17.836Z,12.47
2018-12-19T02:48:45.367Z,14.53
2018-12-19T02:51:13.186Z,13.57
2018-12-19T02:53:40.685Z,12.47
2018-12-19T02:56:09.376Z,12.93
2018-12-19T02:58:36.890Z,12.57
2018-12-19T03:01:04.742Z,12.77
2018-12-19T03:03:36.026Z,14.33
2018-12-19T03:06:03.656Z,12.40
2018-12-19T03:08:31.190Z,13.20
2018-12-19T03:10:59.397Z,13.20
2018-12-19T03:13:27.411Z,13.80
2018-12-19T03:15:54.966Z,13.43
2018-12-19T03:18:22.470Z,13.80
2018-12-19T03:20:50.003Z,14.17
2018-12-19T03:23:17.505Z,14.30
2018-12-19T03:25:45.053Z,13.90
2018-12-19T03:28:12.877Z,13.00
2018-12-19T03:30:40.417Z,14.20
2018-12-19T03:33:07.917Z,13.93
2018-12-19T03:35:35.450Z,14.97
2018-12-19T03:38:03.019Z,14.60
2018-12-19T03:40:30.698Z,13.60
2018-12-19T03:42:58.231Z,13.20
2018-12-19T03:45:25.735Z,13.13
2018-12-19T03:47:53.281Z,14.70
2018-12-19T03:50:20.776Z,14.37
2018-12-19T03:52:48.333Z,15.30
2018-12-19T03:55:15.833Z,14.90
2018-12-19T03:57:43.545Z,13.07
2018-12-19T04:00:11.041Z,13.83
2018-12-19T04:02:38.576Z,13.20
2018-12-19T04:05:06.221Z,13.97
2018-12-19T04:07:33.760Z,13.10
2018-12-19T04:10:01.277Z,14.50
2018-12-19T04:12:28.825Z,12.97
2018-12-19T04:14:56.335Z,15.40
2018-12-19T04:17:23.877Z,14.13
2018-12-19T04:19:51.377Z,13.97
2018-12-19T04:22:18.982Z,13.97
2018-12-19T04:24:46.485Z,13.97
2018-12-19T04:27:14.034Z,13.00
2018-12-19T04:29:41.901Z,14.47
2018-12-19T04:32:09.433Z,14.40
2018-12-19T04:34:36.969Z,15.03
2018-12-19T04:37:04.610Z,14.40
2018-12-19T04:39:32.108Z,14.50
2018-12-19T04:41:59.611Z,15.67
2018-12-19T04:44:27.160Z,13.90
2018-12-19T04:46:54.701Z,14.50
2018-12-19T04:49:22.261Z,14.80
2018-12-19T04:51:49.770Z,13.67
2018-12-19T04:54:17.324Z,14.70
2018-12-19T04:56:44.823Z,15.10
2018-12-19T04:59:12.367Z,14.83
2018-12-19T05:01:39.877Z,14.47
2018-12-19T05:04:07.509Z,14.77
2018-12-19T05:06:35.008Z,13.70
2018-12-19T05:09:02.631Z,14.67
2018-12-19T05:11:30.315Z,13.40
2018-12-19T05:13:57.856Z,14.47
2018-12-19T05:16:25.353Z,14.13
2018-12-19T05:18:53.114Z,14.47
2018-12-19T05:21:20.610Z,13.73
2018-12-19T05:23:48.160Z,15.17
2018-12-19T05:26:15.670Z,14.40
2018-12-19T05:28:43.217Z,14.73
2018-12-19T05:31:10.721Z,14.20
2018-12-19T05:33:38.449Z,13.13
2018-12-19T05:36:12.842Z,14.43
2018-12-19T05:38:40.361Z,14.60
2018-12-19T05:41:07.927Z,14.47
2018-12-19T05:43:35.430Z,14.00
2018-12-19T05:46:03.221Z,13.40
2018-12-19T05:48:30.716Z,14.53
2018-12-19T05:50:58.262Z,14.13
2018-12-19T05:53:25.765Z,15.10
2018-12-19T05:55:53.301Z,15.40
2018-12-19T05:58:20.805Z,12.70
2018-12-19T06:00:48.353Z,15.10
2018-12-19T06:03:15.895Z,14.50
2018-12-19T06:05:43.409Z,14.57
2018-12-19T06:08:10.953Z,15.00
2018-12-19T06:10:38.489Z,14.87
2018-12-19T06:13:06.034Z,14.90
2018-12-19T06:15:33.629Z,14.80
2018-12-19T06:18:01.158Z,13.47
2018-12-19T06:20:28.704Z,16.80
2018-12-19T06:22:56.242Z,15.90
2018-12-19T06:25:23.766Z,16.33
2018-12-19T06:27:51.441Z,15.30
2018-12-19T06:30:19.053Z,15.67
2018-12-19T06:32:46.598Z,16.40
2018-12-19T06:35:14.158Z,15.10
2018-12-19T06:37:41.666Z,16.40
2018-12-19T06:40:09.310Z,14.60
2018-12-19T06:42:36.848Z,14.17
2018-12-19T06:45:05.896Z,15.87
2018-12-19T06:47:33.439Z,15.87
2018-12-19T06:50:00.942Z,15.17
2018-12-19T06:52:28.998Z,14.50
2018-12-19T06:54:56.502Z,15.33
2018-12-19T06:57:24.125Z,16.00
2018-12-19T06:59:51.666Z,15.70
2018-12-19T07:02:19.733Z,16.17
2018-12-19T07:04:47.377Z,15.83
2018-12-19T07:07:14.913Z,14.60
2018-12-19T07:09:42.418Z,16.13
2018-12-19T07:12:09.941Z,16.10
2018-12-19T07:14:39.770Z,15.40
2018-12-19T07:17:07.293Z,15.20
2018-12-19T07:19:34.838Z,15.83
2018-12-19T07:22:02.381Z,15.13
2018-12-19T07:24:29.882Z,15.47
2018-12-19T07:26:57.453Z,16.30
2018-12-19T07:29:24.967Z,15.53
2018-12-19T07:31:52.508Z,15.07
2018-12-19T07:34:20.019Z,15.00
2018-12-19T07:36:47.562Z,15.00
2018-12-19T07:39:15.073Z,14.90
2018-12-19T07:41:42.615Z,15.30
2018-12-19T07:44:10.115Z,14.47
2018-12-19T07:46:37.681Z,16.07
2018-12-19T07:49:05.233Z,15.37
2018-12-19T07:51:33.017Z,14.27
2018-12-19T07:54:00.518Z,15.27
2018-12-19T07:56:29.152Z,14.37
2018-12-19T07:58:56.670Z,13.70
2018-12-19T08:01:24.214Z,15.57
2018-12-19T08:03:51.723Z,15.20
2018-12-19T08:06:19.260Z,15.30
2018-12-19T08:08:46.761Z,15.27
2018-12-19T08:11:14.329Z,15.30
2018-12-19T08:13:41.829Z,15.20
2018-12-19T08:16:09.368Z,14.83
2018-12-19T08:18:36.869Z,15.60
2018-12-19T08:21:04.422Z,15.17
2018-12-19T08:23:31.922Z,16.13
2018-12-19T08:25:59.477Z,14.30
2018-12-19T08:28:27.017Z,15.70
2018-12-19T08:30:54.559Z,15.93
2018-12-19T08:33:22.396Z,14.90
2018-12-19T08:35:49.989Z,14.40
2018-12-19T08:38:17.528Z,15.27
2018-12-19T08:40:45.044Z,15.97
2018-12-19T08:43:12.585Z,14.27
2018-12-19T08:45:40.463Z,16.10
2018-12-19T08:48:08.012Z,13.60
2018-12-19T08:50:35.509Z,15.13
2018-12-19T08:53:03.116Z,13.00
2018-12-19T08:55:30.649Z,14.33
2018-12-19T08:57:58.188Z,14.50
2018-12-19T09:00:25.737Z,15.30
2018-12-19T09:02:53.251Z,13.70
2018-12-19T09:05:20.796Z,14.07
2018-12-19T09:07:48.294Z,14.27
2018-12-19T09:10:15.845Z,15.57
2018-12-19T09:12:43.349Z,15.40
2018-12-19T09:15:10.916Z,14.53
2018-12-19T09:17:38.422Z,14.47
2018-12-19T09:20:06.706Z,14.30
2018-12-19T09:22:34.244Z,13.17
2018-12-19T09:25:01.784Z,13.50
2018-12-19T09:27:29.334Z,15.07
2018-12-19T09:29:56.873Z,15.13
2018-12-19T09:32:24.381Z,15.23
2018-12-19T09:34:51.933Z,13.83
2018-12-19T09:37:19.505Z,13.60
2018-12-19T09:39:47.073Z,14.07
2018-12-19T09:42:14.853Z,12.37
2018-12-19T09:44:42.394Z,14.53
2018-12-19T09:47:09.894Z,14.53
2018-12-19T09:49:37.445Z,13.90
2018-12-19T09:52:05.017Z,13.93
2018-12-19T09:54:32.524Z,13.70
2018-12-19T09:57:00.057Z,13.97
2018-12-19T09:59:27.557Z,14.40
2018-12-19T10:01:55.573Z,13.93
2018-12-19T10:04:23.073Z,15.60
2018-12-19T10:06:50.614Z,15.90
2018-12-19T10:09:18.118Z,16.07
2018-12-19T10:11:45.657Z,14.13
2018-12-19T10:14:13.152Z,14.90
2018-12-19T10:16:40.653Z,15.67
2018-12-19T10:19:08.204Z,17.90
2018-12-19T10:21:35.749Z,15.90
2018-12-19T10:24:03.244Z,17.93
2018-12-19T10:26:30.786Z,15.93
2018-12-19T10:28:58.283Z,14.23
2018-12-19T10:31:25.893Z,13.93
2018-12-19T10:33:53.397Z,15.83
2018-12-19T10:36:22.880Z,15.00
2018-12-19T10:38:50.412Z,14.50
2018-12-19T10:41:18.025Z,16.90
2018-12-19T10:43:45.557Z,14.37
2018-12-19T10:46:13.059Z,14.57
2018-12-19T10:48:40.619Z,11.87
2018-12-19T10:51:08.125Z,12.83
2018-12-19T10:53:35.782Z,13.80
2018-12-19T10:56:03.290Z,13.70
2018-12-19T10:58:30.826Z,13.53
2018-12-19T11:01:00.011Z,13.40
2018-12-19T11:03:27.557Z,13.50
2018-12-19T11:05:55.121Z,13.07
2018-12-19T11:08:22.850Z,14.23
2018-12-19T11:10:50.406Z,13.50
2018-12-19T11:13:21.215Z,12.77
2018-12-19T11:15:48.766Z,13.53
2018-12-19T11:18:16.336Z,13.70
2018-12-19T11:20:44.127Z,16.47
2018-12-19T11:23:12.009Z,14.30
2018-12-19T11:25:39.976Z,14.20
2018-12-19T11:28:08.136Z,12.73
2018-12-19T11:30:36.429Z,13.20
2018-12-19T11:33:03.984Z,13.23
2018-12-19T11:35:31.492Z,11.50
2018-12-19T11:37:58.996Z,13.43
2018-12-19T11:40:26.550Z,13.27
2018-12-19T11:42:54.047Z,11.77
2018-12-19T11:45:21.549Z,12.10
2018-12-19T11:47:49.109Z,13.77
2018-12-19T11:50:16.711Z,13.70
2018-12-19T11:52:44.269Z,12.93
2018-12-19T11:55:11.814Z,13.60
2018-12-19T11:57:39.420Z,12.80
2018-12-19T12:00:08.077Z,13.60
2018-12-19T12:02:35.574Z,14.93
2018-12-19T12:05:03.858Z,13.73
2018-12-19T12:07:31.436Z,13.60
2018-12-19T12:09:58.988Z,12.50
2018-12-19T12:12:26.527Z,13.17
2018-12-19T12:14:54.019Z,12.77
2018-12-19T12:17:21.577Z,13.00
2018-12-19T12:19:49.082Z,12.70
2018-12-19T12:22:16.621Z,12.40
2018-12-19T12:24:44.404Z,12.90
2018-12-19T12:27:11.939Z,13.07
2018-12-19T12:29:39.441Z,12.70
2018-12-19T12:32:06.989Z,12.97
2018-12-19T12:34:34.490Z,12.83
2018-12-19T12:37:01.988Z,14.07
2018-12-19T12:39:29.526Z,13.30
2018-12-19T12:41:57.021Z,12.40
2018-12-19T12:44:24.557Z,12.67
2018-12-19T12:46:52.057Z,13.77
2018-12-19T12:49:19.594Z,13.63
2018-12-19T12:51:47.102Z,13.20
2018-12-19T12:54:14.637Z,13.27
2018-12-19T12:56:42.146Z,12.83
2018-12-19T12:59:09.708Z,12.60
2018-12-19T13:01:37.213Z,13.60
2018-12-19T13:04:04.766Z,12.83
2018-12-19T13:06:32.312Z,12.97
2018-12-19T13:08:59.837Z,19.43
2018-12-19T13:11:27.382Z,17.30
2018-12-19T13:13:54.889Z,14.27
2018-12-19T13:16:22.429Z,13.73
2018-12-19T13:18:49.933Z,12.77
2018-12-19T13:21:17.469Z,14.10
2018-12-19T13:23:44.963Z,14.47
2018-12-19T13:26:12.715Z,14.37
2018-12-19T13:28:40.213Z,15.77
2018-12-19T13:31:07.756Z,13.10
2018-12-19T13:33:35.253Z,15.70
2018-12-19T13:36:02.784Z,14.23
2018-12-19T13:38:30.331Z,13.27
2018-12-19T13:40:57.838Z,12.43
2018-12-19T13:43:25.379Z,12.00
2018-12-19T13:45:52.951Z,12.10
2018-12-19T13:48:20.504Z,12.50
2018-12-19T13:50:48.009Z,13.00
2018-12-19T13:53:15.550Z,12.50
2018-12-19T13:55:43.067Z,12.60
2018-12-19T13:58:10.615Z,13.33
2018-12-19T14:00:38.112Z,12.77
2018-12-19T14:03:05.622Z,13.77
2018-12-19T14:05:33.164Z,13.60
2018-12-19T14:08:00.686Z,14.57
2018-12-19T14:10:28.236Z,14.37
2018-12-19T14:12:55.754Z,13.90
2018-12-19T14:15:23.300Z,15.70
2018-12-19T14:17:50.809Z,14.30
2018-12-19T14:20:18.359Z,14.40
2018-12-19T14:22:45.869Z,14.90
2018-12-19T14:25:13.413Z,15.67
2018-12-19T14:27:40.920Z,14.13
2018-12-19T14:30:09.210Z,14.30
2018-12-19T14:32:36.800Z,14.70
2018-12-19T14:35:04.502Z,14.97
2018-12-19T14:37:32.018Z,14.90
2018-12-19T14:39:59.572Z,13.30
2018-12-19T14:42:27.077Z,14.13
2018-12-19T14:44:54.685Z,13.70
2018-12-19T14:47:22.229Z,13.70
2018-12-19T14:49:49.744Z,11.77
2018-12-19T14:52:17.291Z,13.97
2018-12-19T14:54:44.834Z,14.13
2018-12-19T14:57:12.387Z,14.93
2018-12-19T14:59:40.034Z,14.83
2018-12-19T15:02:07.537Z,17.40
2018-12-19T15:04:35.081Z,18.50
2018-12-19T15:07:02.590Z,14.70
2018-12-19T15:09:30.129Z,13.80
2018-12-19T15:11:57.736Z,16.60
2018-12-19T15:14:25.326Z,15.50
2018-12-19T15:16:52.844Z,14.00
2018-12-19T15:19:20.389Z,14.47
2018-12-19T15:21:47.893Z,17.60
2018-12-19T15:24:15.444Z,16.00
2018-12-19T15:26:43.027Z,16.93
2018-12-19T15:29:10.538Z,17.13
2018-12-19T15:31:38.076Z,19.07
2018-12-19T15:34:05.585Z,17.77
2018-12-19T15:36:33.503Z,16.97
2018-12-19T15:39:01.246Z,20.20
2018-12-19T15:41:28.791Z,20.60
2018-12-19T15:43:56.299Z,21.37
2018-12-19T15:46:23.925Z,20.00
2018-12-19T15:48:51.458Z,17.70
2018-12-19T15:51:19.009Z,15.50
2018-12-19T15:53:46.514Z,14.53
2018-12-19T15:56:14.137Z,14.63
2018-12-19T15:58:41.646Z,14.50
2018-12-19T16:01:09.185Z,14.03
2018-12-19T16:03:36.730Z,15.13
2018-12-19T16:06:04.226Z,17.17
2018-12-19T16:08:31.766Z,15.57
2018-12-19T16:10:59.497Z,16.57
2018-12-19T16:13:27.149Z,20.83
2018-12-19T16:15:54.825Z,19.37
2018-12-19T16:18:23.063Z,27.67
2018-12-19T16:20:50.578Z,26.97
2018-12-19T16:23:18.126Z,22.93
2018-12-19T16:25:45.862Z,16.43
2018-12-19T16:28:13.428Z,14.57
2018-12-19T16:30:40.936Z,13.95
2018-12-19T16:33:08.440Z,13.83
2018-12-19T16:35:35.982Z,12.77
2018-12-19T16:38:03.502Z,13.60
2018-12-19T16:40:31.041Z,14.03
2018-12-19T16:42:58.586Z,12.43
2018-12-19T16:45:26.127Z,12.30
2018-12-19T16:47:53.758Z,12.33
2018-12-19T16:50:21.263Z,12.13
2018-12-19T16:52:48.809Z,19.33
2018-12-19T16:55:16.313Z,17.43
2018-12-19T16:57:43.857Z,16.07
2018-12-19T17:00:11.430Z,16.20
2018-12-19T17:02:38.974Z,16.07
2018-12-19T17:05:06.753Z,15.03
2018-12-19T17:07:34.293Z,16.30
2018-12-19T17:10:01.826Z,13.90
2018-12-19T17:12:30.683Z,13.23
2018-12-19T17:14:58.183Z,16.10
2018-12-19T17:17:25.957Z,19.03
2018-12-19T17:19:53.466Z,19.50
2018-12-19T17:22:21.073Z,20.63
2018-12-19T17:24:48.570Z,19.40
2018-12-19T17:27:16.114Z,18.83
2018-12-19T17:29:43.615Z,16.50
2018-12-19T17:32:11.333Z,18.70
2018-12-19T17:34:38.869Z,17.57
2018-12-19T17:37:06.410Z,16.77
2018-12-19T17:39:33.956Z,15.57
2018-12-19T17:42:01.469Z,14.70
2018-12-19T17:44:28.990Z,14.73
2018-12-19T17:46:56.537Z,12.90
2018-12-19T17:49:24.177Z,15.37
2018-12-19T17:51:51.683Z,15.47
2018-12-19T17:54:19.243Z,15.90
2018-12-19T17:56:46.747Z,16.93
2018-12-19T17:59:14.293Z,17.07
2018-12-19T18:01:41.797Z,18.92
2018-12-19T18:04:09.342Z,16.83
2018-12-19T18:06:36.860Z,18.63
2018-12-19T18:09:06.077Z,16.10
2018-12-19T18:11:33.625Z,15.50
2018-12-19T18:14:01.206Z,18.92
2018-12-19T18:16:28.749Z,16.50
2018-12-19T18:18:56.260Z,15.57
2018-12-19T18:21:23.789Z,15.03
2018-12-19T18:23:51.322Z,15.60
2018-12-19T18:26:18.905Z,14.53
2018-12-19T18:28:46.434Z,13.10
2018-12-19T18:31:14.241Z,13.40
2018-12-19T18:33:41.773Z,12.77
2018-12-19T18:36:09.341Z,11.80
2018-12-19T18:38:36.872Z,13.37
2018-12-19T18:41:04.440Z,12.70
2018-12-19T18:43:31.961Z,12.57
2018-12-19T18:45:59.461Z,10.97
2018-12-19T18:48:26.989Z,12.10
2018-12-19T18:50:54.494Z,11.43
2018-12-19T18:53:21.994Z,13.20
2018-12-19T18:55:49.611Z,15.03
2018-12-19T18:58:17.113Z,16.10
2018-12-19T19:00:46.319Z,14.97
2018-12-19T19:03:15.143Z,18.63
2018-12-19T19:05:42.959Z,17.70
2018-12-19T19:08:10.507Z,16.43
2018-12-19T19:10:38.406Z,13.50
2018-12-19T19:13:05.913Z,12.00
2018-12-19T19:15:33.437Z,12.20
2018-12-19T19:18:00.949Z,12.70
2018-12-19T19:20:28.492Z,12.07
2018-12-19T19:22:55.988Z,12.47
2018-12-19T19:25:23.513Z,13.53
2018-12-19T19:27:51.026Z,13.90
2018-12-19T19:30:18.630Z,12.90
2018-12-19T19:32:46.130Z,13.50
2018-12-19T19:35:13.659Z,14.67
2018-12-19T19:37:41.162Z,12.70
2018-12-19T19:40:09.158Z,15.80
2018-12-19T19:42:36.742Z,15.30
2018-12-19T19:45:05.218Z,13.63
2018-12-19T19:47:32.725Z,14.93
2018-12-19T19:50:00.272Z,13.27
2018-12-19T19:52:27.794Z,14.70
2018-12-19T19:54:55.358Z,14.40
2018-12-19T19:57:22.875Z,15.80
2018-12-19T19:59:50.380Z,17.23
2018-12-19T20:02:17.908Z,22.80
2018-12-19T20:04:45.421Z,29.27
2018-12-19T20:07:12.951Z,19.13
2018-12-19T20:09:40.455Z,14.67
2018-12-19T20:12:08.002Z,14.57
2018-12-19T20:14:35.514Z,18.13
2018-12-19T20:17:03.042Z,24.00
2018-12-19T20:19:30.585Z,24.23
2018-12-19T20:21:58.124Z,22.20
2018-12-19T20:24:26.637Z,22.20
2018-12-19T20:26:54.168Z,21.60
2018-12-19T20:29:21.665Z,19.93
2018-12-19T20:31:49.190Z,19.40
2018-12-19T20:34:16.692Z,20.90
2018-12-19T20:36:44.341Z,18.37
2018-12-19T20:39:11.857Z,18.33
2018-12-19T20:41:39.501Z,18.27
2018-12-19T20:44:07.014Z,20.10
2018-12-19T20:46:34.573Z,17.17
2018-12-19T20:49:02.081Z,17.37
2018-12-19T20:51:29.636Z,17.03
2018-12-19T20:53:57.153Z,17.27
2018-12-19T20:56:24.798Z,16.47
2018-12-19T20:58:52.445Z,18.60
2018-12-19T21:01:19.958Z,16.20
2018-12-19T21:03:47.494Z,16.50
2018-12-19T21:06:15.086Z,16.40
2018-12-19T21:08:42.610Z,17.10
2018-12-19T21:11:10.109Z,16.20
2018-12-19T21:13:37.631Z,16.23
2018-12-19T21:16:05.133Z,17.20
2018-12-19T21:18:38.356Z,15.77
2018-12-19T21:21:05.852Z,16.23
2018-12-19T21:23:33.480Z,16.33
2018-12-19T21:26:00.982Z,17.60
2018-12-19T21:28:28.506Z,17.53
2018-12-19T21:30:56.010Z,18.13
2018-12-19T21:33:23.540Z,18.00
2018-12-19T21:35:51.281Z,17.10
2018-12-19T21:38:18.903Z,16.93
2018-12-19T21:40:46.413Z,16.40
2018-12-19T21:43:13.988Z,16.80
2018-12-19T21:45:41.587Z,15.40
2018-12-19T21:48:09.122Z,15.17
2018-12-19T21:50:36.634Z,16.80
2018-12-19T21:53:04.206Z,15.57
2018-12-19T21:55:31.791Z,16.30
2018-12-19T21:57:59.451Z,15.27
2018-12-19T22:00:27.619Z,14.43
2018-12-19T22:02:55.146Z,14.40
2018-12-19T22:05:22.648Z,13.57
2018-12-19T22:07:50.178Z,15.40
2018-12-19T22:10:17.672Z,14.73
2018-12-19T22:12:45.210Z,15.10
2018-12-19T22:15:12.733Z,14.57
2018-12-19T22:17:46.114Z,14.80
2018-12-19T22:20:13.633Z,14.50
2018-12-19T22:22:41.226Z,14.37
2018-12-19T22:25:08.758Z,15.07
2018-12-19T22:27:36.515Z,14.20
2018-12-19T22:30:06.834Z,14.10
2018-12-19T22:32:34.501Z,14.60
2018-12-19T22:35:02.141Z,14.33
2018-12-19T22:37:29.701Z,15.27
2018-12-19T22:39:57.437Z,14.60
2018-12-19T22:42:25.082Z,14.70
2018-12-19T22:44:52.609Z,15.00
2018-12-19T22:47:21.645Z,13.30
2018-12-19T22:49:49.358Z,14.70
2018-12-19T22:52:16.873Z,14.57
2018-12-19T22:54:44.425Z,14.63
2018-12-19T22:57:12.035Z,16.43
2018-12-19T22:59:39.623Z,15.80
2018-12-19T23:02:12.872Z,16.00
2018-12-19T23:04:47.493Z,15.67
2018-12-19T23:07:15.504Z,17.93
2018-12-19T23:09:43.192Z,19.67
2018-12-19T23:12:10.731Z,16.90
2018-12-19T23:14:38.442Z,14.73
2018-12-19T23:20:07.494Z,23.70
2018-12-19T23:22:35.110Z,22.73
2018-12-19T23:25:03.078Z,30.83
2018-12-19T23:27:31.254Z,36.63
2018-12-19T23:29:58.934Z,19.97
2018-12-19T23:32:28.361Z,14.23
2018-12-19T23:34:56.294Z,15.10
2018-12-19T23:37:23.835Z,15.83
2018-12-19T23:39:51.461Z,16.57
2018-12-19T23:42:19.089Z,14.77
2018-12-19T23:44:46.593Z,13.27
2018-12-19T23:47:14.122Z,14.90
2018-12-19T23:49:41.810Z,13.17
2018-12-19T23:52:09.383Z,13.47
2018-12-19T23:54:36.891Z,13.33
2018-12-19T23:57:04.419Z,12.47
2018-12-19T23:59:32.147Z,13.40
